sensor_id;sensor_type;location;lat;lon;timestamp;P1;durP1;ratioP1;P2;durP2;ratioP2
22080;SDS011;11207;59.512;18.050;2022-12-18T00:01:45;30.33;;;15.83;;
22080;SDS011;11207;59.512;18.050;2022-12-18T00:04:15;31.67;;;16.87;;
22080;SDS011;11207;59.512;18.050;2022-12-18T00:06:46;27.20;;;14.63;;
22080;SDS011;11207;59.512;18.050;2022-12-18T00:09:12;28.50;;;16.57;;
22080;SDS011;11207;59.512;18.050;2022-12-18T00:11:37;26.83;;;15.50;;
22080;SDS011;11207;59.512;18.050;2022-12-18T00:14:03;30.13;;;16.13;;
22080;SDS011;11207;59.512;18.050;2022-12-18T00:16:29;31.17;;;15.50;;
22080;SDS011;11207;59.512;18.050;2022-12-18T00:18:57;37.97;;;19.23;;
22080;SDS011;11207;59.512;18.050;2022-12-18T00:21:24;39.07;;;18.20;;
22080;SDS011;11207;59.512;18.050;2022-12-18T00:23:50;35.03;;;17.80;;
22080;SDS011;11207;59.512;18.050;2022-12-18T00:26:18;30.30;;;15.40;;
22080;SDS011;11207;59.512;18.050;2022-12-18T00:28:45;32.40;;;15.67;;
22080;SDS011;11207;59.512;18.050;2022-12-18T00:31:12;32.60;;;18.27;;
22080;SDS011;11207;59.512;18.050;2022-12-18T00:33:39;32.53;;;15.80;;
22080;SDS011;11207;59.512;18.050;2022-12-18T00:36:10;33.37;;;16.63;;
22080;SDS011;11207;59.512;18.050;2022-12-18T00:38:40;29.63;;;16.17;;
22080;SDS011;11207;59.512;18.050;2022-12-18T00:41:06;30.63;;;15.63;;
22080;SDS011;11207;59.512;18.050;2022-12-18T00:43:33;22.77;;;14.20;;
22080;SDS011;11207;59.512;18.050;2022-12-18T00:45:59;27.13;;;14.23;;
22080;SDS011;11207;59.512;18.050;2022-12-18T00:48:25;40.60;;;18.07;;
22080;SDS011;11207;59.512;18.050;2022-12-18T00:50:51;27.63;;;15.60;;
22080;SDS011;11207;59.512;18.050;2022-12-18T00:53:17;29.97;;;15.63;;
22080;SDS011;11207;59.512;18.050;2022-12-18T00:55:43;26.23;;;14.87;;
22080;SDS011;11207;59.512;18.050;2022-12-18T00:58:10;31.13;;;16.03;;
22080;SDS011;11207;59.512;18.050;2022-12-18T01:00:37;24.43;;;13.23;;
22080;SDS011;11207;59.512;18.050;2022-12-18T01:03:03;25.50;;;15.53;;
22080;SDS011;11207;59.512;18.050;2022-12-18T01:05:29;34.40;;;16.87;;
22080;SDS011;11207;59.512;18.050;2022-12-18T01:07:56;32.37;;;16.60;;
22080;SDS011;11207;59.512;18.050;2022-12-18T01:10:22;25.47;;;14.77;;
22080;SDS011;11207;59.512;18.050;2022-12-18T01:12:48;29.90;;;15.07;;
22080;SDS011;11207;59.512;18.050;2022-12-18T01:15:14;30.27;;;15.30;;
22080;SDS011;11207;59.512;18.050;2022-12-18T01:17:40;26.00;;;14.70;;
22080;SDS011;11207;59.512;18.050;2022-12-18T01:20:06;21.93;;;13.73;;
22080;SDS011;11207;59.512;18.050;2022-12-18T01:22:33;30.03;;;15.10;;
22080;SDS011;11207;59.512;18.050;2022-12-18T01:24:59;20.27;;;13.10;;
22080;SDS011;11207;59.512;18.050;2022-12-18T01:27:26;26.63;;;15.50;;
22080;SDS011;11207;59.512;18.050;2022-12-18T01:29:51;24.60;;;14.07;;
22080;SDS011;11207;59.512;18.050;2022-12-18T01:32:17;21.13;;;13.33;;
22080;SDS011;11207;59.512;18.050;2022-12-18T01:34:43;21.47;;;12.87;;
22080;SDS011;11207;59.512;18.050;2022-12-18T01:37:08;22.60;;;13.77;;
22080;SDS011;11207;59.512;18.050;2022-12-18T01:39:34;22.67;;;13.90;;
22080;SDS011;11207;59.512;18.050;2022-12-18T01:42:01;23.23;;;13.60;;
22080;SDS011;11207;59.512;18.050;2022-12-18T01:50:11;20.97;;;12.70;;
22080;SDS011;11207;59.512;18.050;2022-12-18T01:52:46;23.03;;;13.90;;
22080;SDS011;11207;59.512;18.050;2022-12-18T01:55:25;28.63;;;13.73;;
22080;SDS011;11207;59.512;18.050;2022-12-18T01:57:55;28.87;;;14.97;;
22080;SDS011;11207;59.512;18.050;2022-12-18T02:00:23;23.80;;;13.30;;
22080;SDS011;11207;59.512;18.050;2022-12-18T02:02:50;26.60;;;14.60;;
22080;SDS011;11207;59.512;18.050;2022-12-18T02:05:17;28.00;;;14.33;;
22080;SDS011;11207;59.512;18.050;2022-12-18T02:13:28;24.37;;;13.70;;
22080;SDS011;11207;59.512;18.050;2022-12-18T02:18:41;26.17;;;13.33;;
22080;SDS011;11207;59.512;18.050;2022-12-18T02:24:12;23.10;;;14.07;;
22080;SDS011;11207;59.512;18.050;2022-12-18T02:26:45;27.10;;;14.50;;
22080;SDS011;11207;59.512;18.050;2022-12-18T02:29:18;30.17;;;14.83;;
22080;SDS011;11207;59.512;18.050;2022-12-18T02:31:54;24.70;;;13.73;;
22080;SDS011;11207;59.512;18.050;2022-12-18T02:34:24;19.67;;;13.63;;
22080;SDS011;11207;59.512;18.050;2022-12-18T02:36:54;23.87;;;12.67;;
22080;SDS011;11207;59.512;18.050;2022-12-18T02:39:21;26.53;;;15.50;;
22080;SDS011;11207;59.512;18.050;2022-12-18T02:41:50;23.73;;;13.70;;
22080;SDS011;11207;59.512;18.050;2022-12-18T02:44:16;22.67;;;12.80;;
22080;SDS011;11207;59.512;18.050;2022-12-18T02:46:45;29.90;;;15.73;;
22080;SDS011;11207;59.512;18.050;2022-12-18T02:54:51;24.30;;;12.90;;
22080;SDS011;11207;59.512;18.050;2022-12-18T03:00:04;25.00;;;12.27;;
22080;SDS011;11207;59.512;18.050;2022-12-18T03:02:48;22.60;;;13.40;;
22080;SDS011;11207;59.512;18.050;2022-12-18T03:05:24;24.87;;;12.87;;
22080;SDS011;11207;59.512;18.050;2022-12-18T03:08:03;25.53;;;13.77;;
22080;SDS011;11207;59.512;18.050;2022-12-18T03:10:34;25.43;;;13.83;;
22080;SDS011;11207;59.512;18.050;2022-12-18T03:13:08;21.40;;;12.90;;
22080;SDS011;11207;59.512;18.050;2022-12-18T03:15:45;23.07;;;13.73;;
22080;SDS011;11207;59.512;18.050;2022-12-18T03:18:19;25.53;;;14.20;;
22080;SDS011;11207;59.512;18.050;2022-12-18T03:20:49;22.60;;;14.07;;
22080;SDS011;11207;59.512;18.050;2022-12-18T03:23:19;27.13;;;14.53;;
22080;SDS011;11207;59.512;18.050;2022-12-18T03:25:50;23.37;;;13.17;;
22080;SDS011;11207;59.512;18.050;2022-12-18T03:28:21;19.00;;;11.83;;
22080;SDS011;11207;59.512;18.050;2022-12-18T03:30:49;22.97;;;11.87;;
22080;SDS011;11207;59.512;18.050;2022-12-18T03:33:25;23.53;;;13.63;;
22080;SDS011;11207;59.512;18.050;2022-12-18T03:35:54;21.97;;;13.30;;
22080;SDS011;11207;59.512;18.050;2022-12-18T03:38:21;27.83;;;13.10;;
22080;SDS011;11207;59.512;18.050;2022-12-18T03:49:01;22.97;;;13.73;;
22080;SDS011;11207;59.512;18.050;2022-12-18T03:51:54;20.50;;;13.43;;
22080;SDS011;11207;59.512;18.050;2022-12-18T03:54:28;17.80;;;12.37;;
22080;SDS011;11207;59.512;18.050;2022-12-18T03:57:06;26.27;;;13.20;;
22080;SDS011;11207;59.512;18.050;2022-12-18T03:59:38;25.07;;;13.17;;
22080;SDS011;11207;59.512;18.050;2022-12-18T04:02:06;23.80;;;12.93;;
22080;SDS011;11207;59.512;18.050;2022-12-18T04:04:34;21.73;;;13.00;;
22080;SDS011;11207;59.512;18.050;2022-12-18T04:07:02;22.57;;;13.23;;
22080;SDS011;11207;59.512;18.050;2022-12-18T04:09:30;20.03;;;13.10;;
22080;SDS011;11207;59.512;18.050;2022-12-18T04:11:57;23.63;;;13.83;;
22080;SDS011;11207;59.512;18.050;2022-12-18T04:14:22;23.43;;;13.10;;
22080;SDS011;11207;59.512;18.050;2022-12-18T04:16:48;23.53;;;13.77;;
22080;SDS011;11207;59.512;18.050;2022-12-18T04:19:14;21.97;;;12.53;;
22080;SDS011;11207;59.512;18.050;2022-12-18T04:21:39;20.03;;;12.70;;
22080;SDS011;11207;59.512;18.050;2022-12-18T04:24:05;23.50;;;12.47;;
22080;SDS011;11207;59.512;18.050;2022-12-18T04:26:31;27.97;;;13.90;;
22080;SDS011;11207;59.512;18.050;2022-12-18T04:28:56;21.93;;;13.03;;
22080;SDS011;11207;59.512;18.050;2022-12-18T04:31:22;19.17;;;10.93;;
22080;SDS011;11207;59.512;18.050;2022-12-18T04:33:48;22.60;;;13.40;;
22080;SDS011;11207;59.512;18.050;2022-12-18T04:36:14;20.77;;;13.13;;
22080;SDS011;11207;59.512;18.050;2022-12-18T04:38:39;30.57;;;15.03;;
22080;SDS011;11207;59.512;18.050;2022-12-18T04:41:05;18.63;;;11.90;;
22080;SDS011;11207;59.512;18.050;2022-12-18T04:43:31;19.03;;;13.60;;
22080;SDS011;11207;59.512;18.050;2022-12-18T04:46:04;21.80;;;13.40;;
22080;SDS011;11207;59.512;18.050;2022-12-18T04:48:31;20.30;;;13.30;;
22080;SDS011;11207;59.512;18.050;2022-12-18T04:50:57;23.67;;;12.80;;
22080;SDS011;11207;59.512;18.050;2022-12-18T04:53:23;21.17;;;13.27;;
22080;SDS011;11207;59.512;18.050;2022-12-18T04:55:48;26.13;;;12.73;;
22080;SDS011;11207;59.512;18.050;2022-12-18T04:58:14;22.27;;;13.43;;
22080;SDS011;11207;59.512;18.050;2022-12-18T05:00:40;23.87;;;12.30;;
22080;SDS011;11207;59.512;18.050;2022-12-18T05:03:05;22.77;;;11.80;;
22080;SDS011;11207;59.512;18.050;2022-12-18T05:05:31;22.60;;;14.53;;
22080;SDS011;11207;59.512;18.050;2022-12-18T05:07:59;20.67;;;12.37;;
22080;SDS011;11207;59.512;18.050;2022-12-18T05:10:24;23.50;;;13.67;;
22080;SDS011;11207;59.512;18.050;2022-12-18T05:12:50;19.03;;;12.50;;
22080;SDS011;11207;59.512;18.050;2022-12-18T05:15:32;19.97;;;12.03;;
22080;SDS011;11207;59.512;18.050;2022-12-18T05:17:58;23.03;;;12.13;;
22080;SDS011;11207;59.512;18.050;2022-12-18T05:20:24;22.83;;;12.60;;
22080;SDS011;11207;59.512;18.050;2022-12-18T05:22:51;22.07;;;12.47;;
22080;SDS011;11207;59.512;18.050;2022-12-18T05:25:17;21.90;;;12.07;;
22080;SDS011;11207;59.512;18.050;2022-12-18T05:27:43;19.43;;;12.30;;
22080;SDS011;11207;59.512;18.050;2022-12-18T05:30:10;20.57;;;12.27;;
22080;SDS011;11207;59.512;18.050;2022-12-18T05:32:36;18.50;;;12.33;;
22080;SDS011;11207;59.512;18.050;2022-12-18T05:35:02;23.37;;;13.17;;
22080;SDS011;11207;59.512;18.050;2022-12-18T05:37:29;27.97;;;14.27;;
22080;SDS011;11207;59.512;18.050;2022-12-18T05:39:54;19.23;;;12.73;;
22080;SDS011;11207;59.512;18.050;2022-12-18T05:42:20;16.77;;;11.73;;
22080;SDS011;11207;59.512;18.050;2022-12-18T05:44:45;22.37;;;12.17;;
22080;SDS011;11207;59.512;18.050;2022-12-18T05:47:11;21.17;;;12.23;;
22080;SDS011;11207;59.512;18.050;2022-12-18T05:49:36;20.77;;;11.80;;
22080;SDS011;11207;59.512;18.050;2022-12-18T05:52:02;24.70;;;13.70;;
22080;SDS011;11207;59.512;18.050;2022-12-18T05:54:28;25.60;;;13.20;;
22080;SDS011;11207;59.512;18.050;2022-12-18T05:56:53;21.30;;;12.40;;
22080;SDS011;11207;59.512;18.050;2022-12-18T05:59:19;21.37;;;13.50;;
22080;SDS011;11207;59.512;18.050;2022-12-18T06:01:45;20.17;;;11.60;;
22080;SDS011;11207;59.512;18.050;2022-12-18T06:04:11;22.90;;;12.57;;
22080;SDS011;11207;59.512;18.050;2022-12-18T06:06:37;17.50;;;11.40;;
22080;SDS011;11207;59.512;18.050;2022-12-18T06:09:03;15.70;;;10.70;;
22080;SDS011;11207;59.512;18.050;2022-12-18T06:11:33;23.63;;;12.83;;
22080;SDS011;11207;59.512;18.050;2022-12-18T06:14:00;18.37;;;11.90;;
22080;SDS011;11207;59.512;18.050;2022-12-18T06:16:27;19.47;;;11.63;;
22080;SDS011;11207;59.512;18.050;2022-12-18T06:18:55;23.90;;;12.97;;
22080;SDS011;11207;59.512;18.050;2022-12-18T06:21:25;23.37;;;12.47;;
22080;SDS011;11207;59.512;18.050;2022-12-18T06:23:52;21.77;;;12.10;;
22080;SDS011;11207;59.512;18.050;2022-12-18T06:26:17;18.83;;;11.80;;
22080;SDS011;11207;59.512;18.050;2022-12-18T06:28:43;24.37;;;12.70;;
22080;SDS011;11207;59.512;18.050;2022-12-18T06:31:09;18.33;;;11.77;;
22080;SDS011;11207;59.512;18.050;2022-12-18T06:33:34;23.47;;;12.57;;
22080;SDS011;11207;59.512;18.050;2022-12-18T06:36:01;21.60;;;11.97;;
22080;SDS011;11207;59.512;18.050;2022-12-18T06:38:32;24.27;;;13.97;;
22080;SDS011;11207;59.512;18.050;2022-12-18T06:40:59;18.07;;;10.87;;
22080;SDS011;11207;59.512;18.050;2022-12-18T06:43:25;20.20;;;12.03;;
22080;SDS011;11207;59.512;18.050;2022-12-18T06:45:51;22.60;;;12.50;;
22080;SDS011;11207;59.512;18.050;2022-12-18T06:48:20;20.27;;;11.70;;
22080;SDS011;11207;59.512;18.050;2022-12-18T06:50:46;17.53;;;11.00;;
22080;SDS011;11207;59.512;18.050;2022-12-18T06:53:12;19.90;;;11.60;;
22080;SDS011;11207;59.512;18.050;2022-12-18T06:55:38;17.33;;;10.97;;
22080;SDS011;11207;59.512;18.050;2022-12-18T06:58:06;23.47;;;12.80;;
22080;SDS011;11207;59.512;18.050;2022-12-18T07:00:32;20.47;;;11.63;;
22080;SDS011;11207;59.512;18.050;2022-12-18T07:02:57;23.33;;;12.67;;
22080;SDS011;11207;59.512;18.050;2022-12-18T07:05:23;26.80;;;12.93;;
22080;SDS011;11207;59.512;18.050;2022-12-18T07:07:48;19.57;;;12.77;;
22080;SDS011;11207;59.512;18.050;2022-12-18T07:10:14;21.23;;;12.20;;
22080;SDS011;11207;59.512;18.050;2022-12-18T07:12:40;21.00;;;12.87;;
22080;SDS011;11207;59.512;18.050;2022-12-18T07:15:06;19.37;;;12.00;;
22080;SDS011;11207;59.512;18.050;2022-12-18T07:17:32;24.67;;;12.90;;
22080;SDS011;11207;59.512;18.050;2022-12-18T07:19:58;21.93;;;11.83;;
22080;SDS011;11207;59.512;18.050;2022-12-18T07:22:24;21.73;;;12.17;;
22080;SDS011;11207;59.512;18.050;2022-12-18T07:24:50;21.03;;;12.07;;
22080;SDS011;11207;59.512;18.050;2022-12-18T07:27:16;18.27;;;11.70;;
22080;SDS011;11207;59.512;18.050;2022-12-18T07:29:41;18.13;;;11.37;;
22080;SDS011;11207;59.512;18.050;2022-12-18T07:32:07;20.47;;;11.80;;
22080;SDS011;11207;59.512;18.050;2022-12-18T07:34:33;19.73;;;11.33;;
22080;SDS011;11207;59.512;18.050;2022-12-18T07:36:59;16.87;;;11.30;;
22080;SDS011;11207;59.512;18.050;2022-12-18T07:39:24;17.13;;;11.40;;
22080;SDS011;11207;59.512;18.050;2022-12-18T07:41:50;20.70;;;12.67;;
22080;SDS011;11207;59.512;18.050;2022-12-18T07:44:34;22.43;;;12.87;;
22080;SDS011;11207;59.512;18.050;2022-12-18T07:47:00;22.13;;;13.00;;
22080;SDS011;11207;59.512;18.050;2022-12-18T07:49:26;23.10;;;13.17;;
22080;SDS011;11207;59.512;18.050;2022-12-18T07:51:53;23.40;;;12.40;;
22080;SDS011;11207;59.512;18.050;2022-12-18T07:54:20;23.83;;;13.57;;
22080;SDS011;11207;59.512;18.050;2022-12-18T07:56:45;29.80;;;17.13;;
22080;SDS011;11207;59.512;18.050;2022-12-18T07:59:11;40.70;;;20.07;;
22080;SDS011;11207;59.512;18.050;2022-12-18T08:01:37;29.93;;;16.90;;
22080;SDS011;11207;59.512;18.050;2022-12-18T08:04:02;38.57;;;18.07;;
22080;SDS011;11207;59.512;18.050;2022-12-18T08:06:28;27.73;;;15.50;;
22080;SDS011;11207;59.512;18.050;2022-12-18T08:08:54;32.73;;;16.47;;
22080;SDS011;11207;59.512;18.050;2022-12-18T08:11:21;22.13;;;13.07;;
22080;SDS011;11207;59.512;18.050;2022-12-18T08:13:47;22.13;;;13.03;;
22080;SDS011;11207;59.512;18.050;2022-12-18T08:16:13;21.03;;;12.77;;
22080;SDS011;11207;59.512;18.050;2022-12-18T08:18:39;22.33;;;13.03;;
22080;SDS011;11207;59.512;18.050;2022-12-18T08:21:11;24.10;;;13.47;;
22080;SDS011;11207;59.512;18.050;2022-12-18T08:23:40;23.87;;;13.73;;
22080;SDS011;11207;59.512;18.050;2022-12-18T08:26:06;22.87;;;12.73;;
22080;SDS011;11207;59.512;18.050;2022-12-18T08:28:33;20.03;;;12.43;;
22080;SDS011;11207;59.512;18.050;2022-12-18T08:30:59;24.30;;;14.00;;
22080;SDS011;11207;59.512;18.050;2022-12-18T08:33:25;24.77;;;13.53;;
22080;SDS011;11207;59.512;18.050;2022-12-18T08:35:51;25.97;;;14.43;;
22080;SDS011;11207;59.512;18.050;2022-12-18T08:38:17;25.73;;;14.90;;
22080;SDS011;11207;59.512;18.050;2022-12-18T08:40:43;21.60;;;13.47;;
22080;SDS011;11207;59.512;18.050;2022-12-18T08:43:11;25.47;;;13.37;;
22080;SDS011;11207;59.512;18.050;2022-12-18T08:45:55;22.80;;;13.73;;
22080;SDS011;11207;59.512;18.050;2022-12-18T08:48:21;28.33;;;15.20;;
22080;SDS011;11207;59.512;18.050;2022-12-18T08:50:55;19.83;;;13.50;;
22080;SDS011;11207;59.512;18.050;2022-12-18T08:53:24;23.90;;;13.33;;
22080;SDS011;11207;59.512;18.050;2022-12-18T08:55:50;24.40;;;14.50;;
22080;SDS011;11207;59.512;18.050;2022-12-18T08:58:17;20.27;;;13.13;;
22080;SDS011;11207;59.512;18.050;2022-12-18T09:00:42;22.10;;;13.77;;
22080;SDS011;11207;59.512;18.050;2022-12-18T09:03:15;23.87;;;13.77;;
22080;SDS011;11207;59.512;18.050;2022-12-18T09:05:42;23.03;;;13.87;;
22080;SDS011;11207;59.512;18.050;2022-12-18T09:08:10;22.67;;;14.07;;
22080;SDS011;11207;59.512;18.050;2022-12-18T09:10:41;21.70;;;13.87;;
22080;SDS011;11207;59.512;18.050;2022-12-18T09:13:10;61.73;;;30.87;;
22080;SDS011;11207;59.512;18.050;2022-12-18T09:15:43;22.70;;;14.37;;
22080;SDS011;11207;59.512;18.050;2022-12-18T09:18:11;22.00;;;14.20;;
22080;SDS011;11207;59.512;18.050;2022-12-18T09:20:38;25.97;;;14.40;;
22080;SDS011;11207;59.512;18.050;2022-12-18T09:23:04;28.23;;;15.47;;
22080;SDS011;11207;59.512;18.050;2022-12-18T09:25:31;27.07;;;16.27;;
22080;SDS011;11207;59.512;18.050;2022-12-18T09:28:02;22.07;;;13.77;;
22080;SDS011;11207;59.512;18.050;2022-12-18T09:30:29;27.40;;;15.83;;
22080;SDS011;11207;59.512;18.050;2022-12-18T09:32:54;23.87;;;14.23;;
22080;SDS011;11207;59.512;18.050;2022-12-18T09:35:20;22.97;;;12.87;;
22080;SDS011;11207;59.512;18.050;2022-12-18T09:37:46;22.23;;;13.03;;
22080;SDS011;11207;59.512;18.050;2022-12-18T09:40:19;21.87;;;14.23;;
22080;SDS011;11207;59.512;18.050;2022-12-18T09:42:52;23.97;;;14.40;;
22080;SDS011;11207;59.512;18.050;2022-12-18T09:45:22;19.93;;;13.60;;
22080;SDS011;11207;59.512;18.050;2022-12-18T09:47:49;20.40;;;12.47;;
22080;SDS011;11207;59.512;18.050;2022-12-18T09:52:56;20.30;;;13.03;;
22080;SDS011;11207;59.512;18.050;2022-12-18T09:57:57;25.00;;;12.93;;
22080;SDS011;11207;59.512;18.050;2022-12-18T10:00:27;24.10;;;13.53;;
22080;SDS011;11207;59.512;18.050;2022-12-18T10:02:53;21.27;;;13.47;;
22080;SDS011;11207;59.512;18.050;2022-12-18T10:08:08;21.83;;;13.50;;
22080;SDS011;11207;59.512;18.050;2022-12-18T10:10:48;21.70;;;13.30;;
22080;SDS011;11207;59.512;18.050;2022-12-18T10:16:23;24.30;;;12.77;;
22080;SDS011;11207;59.512;18.050;2022-12-18T10:21:23;29.87;;;13.67;;
22080;SDS011;11207;59.512;18.050;2022-12-18T10:26:26;22.47;;;13.80;;
22080;SDS011;11207;59.512;18.050;2022-12-18T10:28:52;19.53;;;12.30;;
22080;SDS011;11207;59.512;18.050;2022-12-18T10:31:19;20.37;;;12.97;;
22080;SDS011;11207;59.512;18.050;2022-12-18T10:33:46;23.47;;;12.90;;
22080;SDS011;11207;59.512;18.050;2022-12-18T10:36:12;21.63;;;13.07;;
22080;SDS011;11207;59.512;18.050;2022-12-18T10:38:38;26.13;;;12.53;;
22080;SDS011;11207;59.512;18.050;2022-12-18T10:43:39;27.77;;;13.73;;
22080;SDS011;11207;59.512;18.050;2022-12-18T10:48:47;26.03;;;13.57;;
22080;SDS011;11207;59.512;18.050;2022-12-18T10:51:28;20.50;;;11.37;;
22080;SDS011;11207;59.512;18.050;2022-12-18T10:56:22;21.67;;;12.77;;
22080;SDS011;11207;59.512;18.050;2022-12-18T10:59:01;23.20;;;14.50;;
22080;SDS011;11207;59.512;18.050;2022-12-18T11:01:32;19.83;;;13.20;;
22080;SDS011;11207;59.512;18.050;2022-12-18T11:04:13;20.20;;;13.20;;
22080;SDS011;11207;59.512;18.050;2022-12-18T11:07:01;25.27;;;14.87;;
22080;SDS011;11207;59.512;18.050;2022-12-18T11:09:30;28.43;;;15.10;;
22080;SDS011;11207;59.512;18.050;2022-12-18T11:11:58;26.10;;;14.73;;
22080;SDS011;11207;59.512;18.050;2022-12-18T11:14:48;23.40;;;13.30;;
22080;SDS011;11207;59.512;18.050;2022-12-18T11:17:30;22.23;;;13.00;;
22080;SDS011;11207;59.512;18.050;2022-12-18T11:20:00;22.97;;;14.53;;
22080;SDS011;11207;59.512;18.050;2022-12-18T11:22:32;23.60;;;14.60;;
22080;SDS011;11207;59.512;18.050;2022-12-18T11:25:01;28.57;;;15.37;;
22080;SDS011;11207;59.512;18.050;2022-12-18T11:27:53;20.37;;;12.83;;
22080;SDS011;11207;59.512;18.050;2022-12-18T11:31:16;23.00;;;13.90;;
22080;SDS011;11207;59.512;18.050;2022-12-18T11:36:46;27.37;;;14.77;;
22080;SDS011;11207;59.512;18.050;2022-12-18T11:42:15;29.00;;;14.53;;
22080;SDS011;11207;59.512;18.050;2022-12-18T11:50:16;23.37;;;13.50;;
22080;SDS011;11207;59.512;18.050;2022-12-18T11:52:48;26.53;;;14.70;;
22080;SDS011;11207;59.512;18.050;2022-12-18T12:00:42;22.20;;;14.03;;
22080;SDS011;11207;59.512;18.050;2022-12-18T12:03:27;20.57;;;12.63;;
22080;SDS011;11207;59.512;18.050;2022-12-18T12:10:07;23.63;;;13.30;;
22080;SDS011;11207;59.512;18.050;2022-12-18T12:23:40;26.57;;;13.37;;
22080;SDS011;11207;59.512;18.050;2022-12-18T12:28:57;21.03;;;12.20;;
22080;SDS011;11207;59.512;18.050;2022-12-18T12:31:42;20.47;;;12.73;;
22080;SDS011;11207;59.512;18.050;2022-12-18T12:34:18;21.87;;;12.50;;
22080;SDS011;11207;59.512;18.050;2022-12-18T12:39:21;18.43;;;11.30;;
22080;SDS011;11207;59.512;18.050;2022-12-18T12:41:54;22.73;;;13.10;;
22080;SDS011;11207;59.512;18.050;2022-12-18T12:44:40;25.20;;;14.20;;
22080;SDS011;11207;59.512;18.050;2022-12-18T12:47:16;24.33;;;15.27;;
22080;SDS011;11207;59.512;18.050;2022-12-18T12:49:46;26.57;;;17.33;;
22080;SDS011;11207;59.512;18.050;2022-12-18T12:52:27;23.67;;;13.40;;
22080;SDS011;11207;59.512;18.050;2022-12-18T12:55:02;19.67;;;11.80;;
22080;SDS011;11207;59.512;18.050;2022-12-18T12:57:34;16.60;;;10.70;;
22080;SDS011;11207;59.512;18.050;2022-12-18T13:00:11;20.87;;;10.90;;
22080;SDS011;11207;59.512;18.050;2022-12-18T13:02:47;24.43;;;11.43;;
22080;SDS011;11207;59.512;18.050;2022-12-18T13:05:46;16.03;;;9.73;;
22080;SDS011;11207;59.512;18.050;2022-12-18T13:08:25;15.17;;;9.87;;
22080;SDS011;11207;59.512;18.050;2022-12-18T13:10:56;22.80;;;10.33;;
22080;SDS011;11207;59.512;18.050;2022-12-18T13:13:51;18.17;;;10.03;;
22080;SDS011;11207;59.512;18.050;2022-12-18T13:16:22;19.13;;;9.87;;
22080;SDS011;11207;59.512;18.050;2022-12-18T13:18:51;17.63;;;9.90;;
22080;SDS011;11207;59.512;18.050;2022-12-18T13:21:23;18.10;;;9.63;;
22080;SDS011;11207;59.512;18.050;2022-12-18T13:23:54;15.40;;;9.20;;
22080;SDS011;11207;59.512;18.050;2022-12-18T13:28:54;17.53;;;10.07;;
22080;SDS011;11207;59.512;18.050;2022-12-18T13:34:26;19.90;;;9.43;;
22080;SDS011;11207;59.512;18.050;2022-12-18T13:36:52;21.57;;;9.53;;
22080;SDS011;11207;59.512;18.050;2022-12-18T13:41:46;18.13;;;9.87;;
22080;SDS011;11207;59.512;18.050;2022-12-18T13:44:55;21.60;;;9.93;;
22080;SDS011;11207;59.512;18.050;2022-12-18T13:47:26;18.77;;;9.53;;
22080;SDS011;11207;59.512;18.050;2022-12-18T13:50:22;19.17;;;9.50;;
22080;SDS011;11207;59.512;18.050;2022-12-18T13:52:51;14.37;;;8.00;;
22080;SDS011;11207;59.512;18.050;2022-12-18T13:55:19;11.87;;;7.40;;
22080;SDS011;11207;59.512;18.050;2022-12-18T13:57:47;16.50;;;8.47;;
22080;SDS011;11207;59.512;18.050;2022-12-18T14:02:47;20.53;;;8.77;;
22080;SDS011;11207;59.512;18.050;2022-12-18T14:05:21;13.17;;;7.87;;
22080;SDS011;11207;59.512;18.050;2022-12-18T14:07:48;12.00;;;6.60;;
22080;SDS011;11207;59.512;18.050;2022-12-18T14:10:14;16.33;;;7.40;;
22080;SDS011;11207;59.512;18.050;2022-12-18T14:12:44;12.17;;;7.13;;
22080;SDS011;11207;59.512;18.050;2022-12-18T14:17:59;12.10;;;7.53;;
22080;SDS011;11207;59.512;18.050;2022-12-18T14:20:39;11.93;;;6.97;;
22080;SDS011;11207;59.512;18.050;2022-12-18T14:25:59;9.03;;;6.43;;
22080;SDS011;11207;59.512;18.050;2022-12-18T14:28:26;12.90;;;6.87;;
22080;SDS011;11207;59.512;18.050;2022-12-18T14:30:53;13.27;;;7.20;;
22080;SDS011;11207;59.512;18.050;2022-12-18T14:33:20;13.20;;;6.97;;
22080;SDS011;11207;59.512;18.050;2022-12-18T14:38:22;11.97;;;6.30;;
22080;SDS011;11207;59.512;18.050;2022-12-18T14:40:52;11.90;;;6.50;;
22080;SDS011;11207;59.512;18.050;2022-12-18T14:43:19;9.37;;;6.17;;
22080;SDS011;11207;59.512;18.050;2022-12-18T14:45:46;15.00;;;6.37;;
22080;SDS011;11207;59.512;18.050;2022-12-18T14:48:17;15.13;;;7.03;;
22080;SDS011;11207;59.512;18.050;2022-12-18T14:50:54;13.13;;;7.10;;
22080;SDS011;11207;59.512;18.050;2022-12-18T14:53:32;12.13;;;5.97;;
22080;SDS011;11207;59.512;18.050;2022-12-18T14:56:00;11.03;;;6.07;;
22080;SDS011;11207;59.512;18.050;2022-12-18T14:58:26;11.43;;;5.93;;
22080;SDS011;11207;59.512;18.050;2022-12-18T15:00:52;14.17;;;6.40;;
22080;SDS011;11207;59.512;18.050;2022-12-18T15:03:18;12.20;;;6.10;;
22080;SDS011;11207;59.512;18.050;2022-12-18T15:05:46;14.93;;;5.43;;
22080;SDS011;11207;59.512;18.050;2022-12-18T15:08:34;13.70;;;5.93;;
22080;SDS011;11207;59.512;18.050;2022-12-18T15:11:01;12.63;;;5.67;;
22080;SDS011;11207;59.512;18.050;2022-12-18T15:13:27;8.47;;;5.50;;
22080;SDS011;11207;59.512;18.050;2022-12-18T15:15:53;13.73;;;6.33;;
22080;SDS011;11207;59.512;18.050;2022-12-18T15:18:21;8.87;;;5.53;;
22080;SDS011;11207;59.512;18.050;2022-12-18T15:20:55;12.23;;;5.77;;
22080;SDS011;11207;59.512;18.050;2022-12-18T15:23:24;21.63;;;5.60;;
22080;SDS011;11207;59.512;18.050;2022-12-18T15:26:12;8.40;;;5.50;;
22080;SDS011;11207;59.512;18.050;2022-12-18T15:31:06;10.20;;;5.93;;
22080;SDS011;11207;59.512;18.050;2022-12-18T15:36:17;11.60;;;5.67;;
22080;SDS011;11207;59.512;18.050;2022-12-18T15:38:47;13.07;;;6.50;;
22080;SDS011;11207;59.512;18.050;2022-12-18T15:41:14;16.30;;;6.03;;
22080;SDS011;11207;59.512;18.050;2022-12-18T15:43:40;7.57;;;5.37;;
22080;SDS011;11207;59.512;18.050;2022-12-18T15:46:09;8.53;;;5.00;;
22080;SDS011;11207;59.512;18.050;2022-12-18T15:48:42;8.93;;;5.20;;
22080;SDS011;11207;59.512;18.050;2022-12-18T15:51:11;12.87;;;5.53;;
22080;SDS011;11207;59.512;18.050;2022-12-18T15:53:39;7.77;;;4.60;;
22080;SDS011;11207;59.512;18.050;2022-12-18T15:56:07;12.40;;;5.43;;
22080;SDS011;11207;59.512;18.050;2022-12-18T15:58:54;11.13;;;5.07;;
22080;SDS011;11207;59.512;18.050;2022-12-18T16:01:21;9.27;;;5.20;;
22080;SDS011;11207;59.512;18.050;2022-12-18T16:03:48;10.83;;;5.63;;
22080;SDS011;11207;59.512;18.050;2022-12-18T16:06:14;7.00;;;4.23;;
22080;SDS011;11207;59.512;18.050;2022-12-18T16:08:40;10.93;;;4.80;;
22080;SDS011;11207;59.512;18.050;2022-12-18T16:11:05;10.87;;;4.67;;
22080;SDS011;11207;59.512;18.050;2022-12-18T16:13:41;12.70;;;5.37;;
22080;SDS011;11207;59.512;18.050;2022-12-18T16:16:08;7.83;;;4.93;;
22080;SDS011;11207;59.512;18.050;2022-12-18T16:18:33;12.67;;;4.80;;
22080;SDS011;11207;59.512;18.050;2022-12-18T16:20:59;12.43;;;4.80;;
22080;SDS011;11207;59.512;18.050;2022-12-18T16:23:24;12.00;;;5.03;;